Time;durP1;ratioP1;P1;durP2;ratioP2;P2;SDS_P1;SDS_P2;PMS_P1;PMS_P2;Temp;Humidity;BMP_temperature;BMP_pressure;BME280_temperature;BME280_humidity;BME280_pressure;Samples;Min_cycle;Max_cycle;Signal;HPM_P1;HPM_P2
2023/09/04 00:00:26;;;;;;;1.35;0.80;;;27.40;62.60;;;;;;10572844;28;20048;-31
2023/09/04 00:05:28;;;;;;;1.73;1.08;;;27.30;62.60;;;;;;10571029;28;20465;-35
2023/09/04 00:10:30;;;;;;;4.75;2.33;;;27.30;62.60;;;;;;10567465;28;20109;-40
2023/09/04 00:15:33;;;;;;;2.05;1.52;;;27.30;62.60;;;;;;10569888;27;20142;-32
2023/09/04 00:20:35;;;;;;;2.90;1.33;;;27.30;62.70;;;;;;10554735;28;20147;-32
2023/09/04 00:25:38;;;;;;;1.45;1.05;;;27.20;62.70;;;;;;10571208;28;20051;-37
2023/09/04 00:30:42;;;;;;;1.88;1.05;;;27.20;62.70;;;;;;10573113;27;20452;-31
2023/09/04 00:35:44;;;;;;;2.00;1.23;;;27.20;62.80;;;;;;10574538;27;20047;-36
2023/09/04 00:40:46;;;;;;;2.25;1.30;;;27.10;62.70;;;;;;10571842;28;20469;-33
2023/09/04 00:45:49;;;;;;;3.50;1.73;;;27.10;62.80;;;;;;10563346;28;20074;-35
2023/09/04 00:50:51;;;;;;;5.53;1.58;;;27.00;62.80;;;;;;10562285;27;20085;-31
2023/09/04 00:55:55;;;;;;;1.45;1.23;;;27.10;62.80;;;;;;10558990;28;20078;-32
2023/09/04 01:00:58;;;;;;;2.03;1.40;;;27.00;63.40;;;;;;10575415;27;20071;-30
2023/09/04 01:06:00;;;;;;;2.60;1.20;;;27.00;62.90;;;;;;10566898;28;20087;-34
2023/09/04 01:11:10;;;;;;;1.35;1.25;;;27.00;63.00;;;;;;10571182;28;20122;-34
2023/09/04 01:16:13;;;;;;;2.45;1.23;;;27.00;63.10;;;;;;10574681;28;20055;-31
2023/09/04 01:21:17;;;;;;;0.93;0.93;;;26.90;63.10;;;;;;10576490;28;20078;-42
2023/09/04 01:26:25;;;;;;;2.10;0.98;;;26.90;63.20;;;;;;10575830;28;20071;-33
2023/09/04 01:31:32;;;;;;;2.60;1.20;;;26.90;63.30;;;;;;10569715;28;20084;-34
2023/09/04 01:36:36;;;;;;;2.38;1.20;;;26.90;63.30;;;;;;10570119;28;20097;-31
2023/09/04 01:41:39;;;;;;;1.52;1.08;;;26.90;63.30;;;;;;10566302;28;20456;-31
2023/09/04 01:46:41;;;;;;;1.55;1.05;;;26.80;63.30;;;;;;10563852;28;20399;-32
2023/09/04 01:51:44;;;;;;;1.40;0.95;;;26.80;63.30;;;;;;10573732;28;20063;-32
2023/09/04 01:56:46;;;;;;;2.28;1.23;;;26.80;63.40;;;;;;10574338;28;20075;-32
2023/09/04 02:01:48;;;;;;;1.70;1.20;;;26.70;63.50;;;;;;10574969;28;20043;-35
2023/09/04 02:06:51;;;;;;;1.40;1.10;;;26.70;63.50;;;;;;10571259;28;20097;-32
2023/09/04 02:11:53;;;;;;;1.80;1.02;;;26.70;64.10;;;;;;10549145;28;20109;-34
2023/09/04 02:16:55;;;;;;;1.02;0.80;;;26.70;63.50;;;;;;10575225;28;20094;-32
2023/09/04 02:21:58;;;;;;;1.25;1.10;;;26.70;63.40;;;;;;10568871;28;20134;-34
2023/09/04 02:27:00;;;;;;;2.10;1.20;;;26.70;63.50;;;;;;10559235;28;20064;-38
2023/09/04 02:32:02;;;;;;;1.42;1.00;;;26.60;63.50;;;;;;10573382;28;20048;-34
2023/09/04 02:37:05;;;;;;;1.45;1.10;;;26.60;63.60;;;;;;10572463;28;20092;-31
2023/09/04 02:42:07;;;;;;;3.72;1.15;;;26.50;63.40;;;;;;10564635;28;20143;-33
2023/09/04 02:47:08;;;;;;;1.55;1.27;;;26.50;63.40;;;;;;10559627;28;20134;-36
2023/09/04 02:52:12;;;;;;;1.63;1.02;;;26.50;63.40;;;;;;10573420;28;20488;-32
2023/09/04 03:15:29;;;;;;;1.50;1.05;;;26.20;63.40;;;;;;10431460;27;2054459;-33
2023/09/04 03:20:31;;;;;;;1.80;1.00;;;26.20;63.90;;;;;;10469166;28;20132;-32
2023/09/04 03:25:33;;;;;;;1.42;1.20;;;26.20;63.70;;;;;;10470856;28;20065;-38
2023/09/04 03:30:36;;;;;;;1.50;1.30;;;26.20;63.60;;;;;;10485131;28;20041;-39
2023/09/04 03:35:37;;;;;;;2.33;1.80;;;26.20;63.60;;;;;;10485419;28;20080;-38
2023/09/04 03:40:39;;;;;;;1.58;1.25;;;26.20;63.70;;;;;;10469367;28;20084;-33
2023/09/04 03:45:42;;;;;;;1.48;1.05;;;26.20;63.70;;;;;;10473247;28;20129;-35
2023/09/04 03:50:44;;;;;;;2.65;1.00;;;26.20;63.60;;;;;;10474838;28;20489;-37
2023/09/04 03:55:48;;;;;;;2.38;1.10;;;26.20;63.60;;;;;;10463042;28;20135;-32
2023/09/04 04:00:57;;;;;;;2.58;1.35;;;26.20;63.70;;;;;;10487925;28;20052;-39
2023/09/04 04:05:59;;;;;;;1.55;1.33;;;26.20;63.70;;;;;;10473207;28;20374;-37
2023/09/04 04:11:01;;;;;;;1.92;1.40;;;26.10;63.70;;;;;;10478721;28;20123;-33
2023/09/04 04:16:04;;;;;;;2.25;1.40;;;26.10;63.70;;;;;;10483716;28;20051;-35
2023/09/04 04:21:06;;;;;;;1.88;1.50;;;26.10;63.70;;;;;;10490447;28;20139;-33
2023/09/04 04:26:08;;;;;;;3.67;1.55;;;26.10;63.60;;;;;;10438920;28;20115;-34
2023/09/04 04:31:11;;;;;;;1.42;1.25;;;26.10;64.20;;;;;;10441458;28;20049;-33
2023/09/04 04:36:13;;;;;;;1.85;1.30;;;26.00;63.60;;;;;;10440992;28;20060;-36
2023/09/04 04:41:15;;;;;;;1.67;1.42;;;26.00;63.60;;;;;;10444682;28;20535;-38
2023/09/04 04:46:19;;;;;;;1.90;1.50;;;26.00;63.70;;;;;;10433948;28;20124;-34
2023/09/04 04:51:20;;;;;;;1.77;1.48;;;26.00;63.60;;;;;;10429914;28;20060;-32
2023/09/04 04:56:22;;;;;;;2.75;1.30;;;26.00;63.60;;;;;;10457168;28;20126;-32
2023/09/04 05:01:25;;;;;;;2.25;1.38;;;25.90;63.70;;;;;;10455254;28;20108;-34
2023/09/04 05:06:27;;;;;;;1.55;1.13;;;25.90;63.60;;;;;;10447319;28;20045;-33
2023/09/04 05:11:29;;;;;;;2.05;1.38;;;25.90;63.70;;;;;;10448227;28;20052;-33
2023/09/04 05:16:32;;;;;;;4.78;1.40;;;25.90;63.60;;;;;;10438098;28;20073;-37
2023/09/04 05:21:34;;;;;;;1.67;1.50;;;25.90;63.70;;;;;;10449215;28;20045;-32
2023/09/04 05:26:36;;;;;;;3.78;1.38;;;25.90;63.70;;;;;;10438218;28;20106;-38
2023/09/04 05:31:39;;;;;;;2.28;1.50;;;25.90;63.70;;;;;;10444210;28;20120;-34
2023/09/04 05:36:40;;;;;;;2.22;1.30;;;25.80;63.70;;;;;;10454022;28;20221;-39
2023/09/04 05:41:42;;;;;;;1.77;1.13;;;25.80;63.70;;;;;;10451419;28;20084;-34
2023/09/04 05:46:46;;;;;;;2.25;1.38;;;25.80;63.80;;;;;;10443575;28;20106;-37
2023/09/04 05:51:47;;;;;;;6.90;1.50;;;25.80;63.70;;;;;;10444435;28;20080;-37
2023/09/04 05:56:49;;;;;;;2.78;1.45;;;25.80;63.80;;;;;;10452286;28;20036;-32
2023/09/04 06:01:52;;;;;;;2.50;1.17;;;25.80;63.80;;;;;;10432789;28;20119;-36
2023/09/04 06:06:54;;;;;;;2.95;1.60;;;25.80;63.70;;;;;;10452203;28;20094;-33
2023/09/04 06:11:56;;;;;;;2.58;1.60;;;25.80;63.60;;;;;;10439524;28;20088;-34
2023/09/04 06:16:59;;;;;;;4.90;1.60;;;25.80;63.50;;;;;;10446899;28;20045;-35
2023/09/04 06:22:01;;;;;;;5.47;1.70;;;25.80;63.60;;;;;;10431988;28;20152;-37
2023/09/04 06:27:03;;;;;;;2.55;1.55;;;25.80;63.60;;;;;;10426170;28;20077;-35
2023/09/04 06:32:06;;;;;;;3.20;1.60;;;25.80;63.50;;;;;;10432834;28;20541;-32
2023/09/04 06:37:09;;;;;;;3.47;1.42;;;25.80;63.50;;;;;;10443913;28;20048;-32
2023/09/04 06:42:10;;;;;;;3.47;1.70;;;25.80;63.40;;;;;;10434828;28;20383;-34
2023/09/04 06:47:14;;;;;;;7.63;1.60;;;25.80;63.30;;;;;;10421087;28;20641;-37
2023/09/04 06:52:15;;;;;;;4.47;1.60;;;25.80;63.20;;;;;;10441089;28;20050;-33
2023/09/04 06:57:17;;;;;;;6.13;1.85;;;25.80;63.20;;;;;;10442855;28;20124;-33
2023/09/04 07:02:20;;;;;;;3.90;1.75;;;25.80;63.10;;;;;;10430086;28;20048;-35
2023/09/04 07:07:22;;;;;;;5.13;1.63;;;25.70;63.00;;;;;;10444801;28;20130;-33
2023/09/04 07:12:24;;;;;;;5.28;1.23;;;25.80;63.00;;;;;;10451492;28;20401;-33
2023/09/04 07:17:27;;;;;;;2.60;1.70;;;25.80;63.00;;;;;;10428211;28;20647;-35
2023/09/04 07:22:30;;;;;;;4.72;1.50;;;25.80;63.10;;;;;;10437256;28;20042;-32
2023/09/04 07:27:31;;;;;;;3.63;1.77;;;25.80;63.00;;;;;;10443669;28;20055;-34
2023/09/04 07:32:35;;;;;;;3.17;1.73;;;25.90;63.00;;;;;;10434365;28;20140;-34
2023/09/04 07:37:37;;;;;;;2.65;1.60;;;25.80;63.00;;;;;;10441140;28;20585;-32
2023/09/04 07:42:41;;;;;;;4.25;1.98;;;25.80;62.90;;;;;;10435619;28;20045;-42
2023/09/04 07:47:44;;;;;;;3.28;1.90;;;25.80;62.90;;;;;;10427985;28;20068;-45
2023/09/04 07:52:46;;;;;;;3.00;1.58;;;25.90;63.10;;;;;;10437331;28;20060;-35
2023/09/04 07:57:48;;;;;;;4.72;1.90;;;25.90;63.10;;;;;;10444796;28;20665;-34
2023/09/04 08:02:51;;;;;;;7.30;2.13;;;25.80;63.00;;;;;;10461060;28;20556;-31
2023/09/04 08:07:53;;;;;;;2.70;2.05;;;25.90;63.00;;;;;;10451589;28;20549;-34
2023/09/04 08:12:55;;;;;;;2.97;1.70;;;25.90;63.00;;;;;;10445363;28;20084;-34
2023/09/04 08:17:58;;;;;;;3.70;1.83;;;25.90;62.90;;;;;;10456513;28;20079;-35
2023/09/04 08:22:59;;;;;;;3.90;1.90;;;25.90;62.90;;;;;;10446617;28;20153;-36
2023/09/04 08:28:02;;;;;;;2.50;1.63;;;25.90;62.70;;;;;;10434589;28;20064;-34
2023/09/04 08:33:05;;;;;;;3.72;1.38;;;26.00;63.00;;;;;;10452573;28;20048;-32
2023/09/04 08:38:08;;;;;;;3.33;1.77;;;25.90;62.90;;;;;;10443447;28;20721;-32
2023/09/04 08:43:10;;;;;;;4.22;2.35;;;26.00;62.90;;;;;;10448815;28;20132;-28
2023/09/04 08:48:14;;;;;;;3.50;1.48;;;26.00;62.90;;;;;;10447983;28;20041;-38
2023/09/04 08:53:17;;;;;;;3.85;2.17;;;26.00;62.80;;;;;;10450262;28;20045;-41
2023/09/04 08:58:19;;;;;;;6.47;1.83;;;26.10;62.70;;;;;;10444176;28;20055;-32
2023/09/04 09:03:22;;;;;;;3.20;2.00;;;26.10;62.80;;;;;;10456809;28;20040;-32
2023/09/04 09:08:25;;;;;;;3.47;1.40;;;26.10;62.70;;;;;;10433757;28;20072;-35
2023/09/04 09:13:26;;;;;;;5.47;2.15;;;26.10;62.70;;;;;;10440002;28;20088;-38
2023/09/04 09:18:37;;;;;;;3.88;1.63;;;26.20;62.80;;;;;;10455037;28;20055;-36
2023/09/04 09:23:39;;;;;;;3.30;1.77;;;26.20;62.70;;;;;;10427988;28;20048;-41
2023/09/04 09:28:43;;;;;;;4.63;2.10;;;26.20;62.60;;;;;;10434651;28;20041;-34
2023/09/04 09:33:49;;;;;;;2.58;1.98;;;26.20;62.70;;;;;;10444579;28;20163;-33
2023/09/04 09:38:51;;;;;;;3.90;2.20;;;26.30;62.70;;;;;;10438046;28;20073;-32
2023/09/04 09:43:53;;;;;;;2.75;1.75;;;26.30;62.70;;;;;;10431688;28;20047;-32
2023/09/04 09:48:56;;;;;;;4.43;2.10;;;26.30;62.70;;;;;;10444144;28;20131;-32
2023/09/04 09:53:58;;;;;;;2.97;1.80;;;26.30;62.80;;;;;;10437755;28;20170;-38
2023/09/04 09:59:00;;;;;;;4.10;2.22;;;26.30;62.80;;;;;;10430824;28;20049;-36
2023/09/04 10:04:03;;;;;;;3.33;2.20;;;26.40;62.80;;;;;;10450804;28;20056;-39
2023/09/04 10:09:10;;;;;;;2.08;1.70;;;26.40;62.70;;;;;;10429851;28;20067;-39
2023/09/04 10:14:16;;;;;;;2.85;2.00;;;26.40;62.70;;;;;;10446062;28;20588;-33
2023/09/04 10:19:25;;;;;;;3.90;1.80;;;26.50;62.90;;;;;;10439079;28;20049;-37
2023/09/04 10:24:36;;;;;;;2.95;1.95;;;26.50;62.60;;;;;;10439509;28;20451;-34
2023/09/04 10:29:49;;;;;;;2.57;2.30;;;26.60;62.70;;;;;;10454254;28;20048;-38
2023/09/04 10:34:52;;;;;;;3.45;1.85;;;26.50;62.80;;;;;;10449598;28;20487;-34
2023/09/04 10:39:55;;;;;;;3.95;1.73;;;26.60;62.90;;;;;;10440491;28;20136;-34
2023/09/04 10:44:58;;;;;;;4.13;2.88;;;26.70;62.90;;;;;;10443808;28;20654;-32
2023/09/04 10:50:01;;;;;;;2.38;1.98;;;26.60;63.40;;;;;;10440731;28;20487;-39
2023/09/04 10:55:13;;;;;;;3.08;1.98;;;26.70;63.10;;;;;;10452546;28;20060;-41
2023/09/04 11:00:27;;;;;;;2.53;1.90;;;26.70;63.00;;;;;;10440381;28;20136;-37
2023/09/04 11:05:31;;;;;;;3.22;2.20;;;26.80;63.20;;;;;;10441526;28;20461;-40
2023/09/04 11:10:38;;;;;;;2.75;1.80;;;26.80;63.10;;;;;;10435635;28;20041;-32
2023/09/04 11:15:40;;;;;;;1.70;1.50;;;27.30;62.40;;;;;;10447534;28;20159;-30
2023/09/04 11:20:47;;;;;;;2.03;1.75;;;27.20;62.20;;;;;;10445025;28;20134;-32
2023/09/04 11:25:49;;;;;;;2.78;2.00;;;27.40;61.70;;;;;;10433874;28;20170;-35
2023/09/04 11:30:53;;;;;;;2.38;1.80;;;27.40;61.80;;;;;;10422274;28;20081;-37
2023/09/04 11:36:04;;;;;;;5.53;2.42;;;27.60;61.50;;;;;;10442996;28;20142;-34
2023/09/04 11:41:15;;;;;;;5.70;1.75;;;27.60;61.80;;;;;;10444679;28;20554;-33
2023/09/04 11:46:17;;;;;;;2.60;1.83;;;27.70;61.50;;;;;;10447174;28;20052;-31
2023/09/04 11:51:20;;;;;;;3.72;2.92;;;27.90;61.10;;;;;;10444493;28;20503;-32
2023/09/04 11:56:22;;;;;;;1.77;1.50;;;27.50;62.10;;;;;;10442525;28;20472;-34
2023/09/04 12:01:24;;;;;;;3.63;1.45;;;27.80;61.40;;;;;;10436945;28;20045;-36
2023/09/04 12:06:29;;;;;;;2.90;1.88;;;27.70;61.40;;;;;;10444592;28;20080;-31
2023/09/04 12:11:31;;;;;;;3.42;2.05;;;27.80;61.50;;;;;;10437705;28;20048;-34
2023/09/04 12:16:32;;;;;;;3.78;1.80;;;28.10;60.20;;;;;;10450626;28;20394;-37
2023/09/04 12:21:36;;;;;;;3.03;2.08;;;28.10;60.50;;;;;;10436789;28;20077;-32
2023/09/04 12:26:37;;;;;;;8.93;2.83;;;28.30;60.10;;;;;;10446343;28;20127;-36
2023/09/04 12:31:41;;;;;;;4.40;2.08;;;27.90;60.80;;;;;;10450137;28;20051;-33
2023/09/04 12:36:44;;;;;;;2.78;2.20;;;28.30;60.20;;;;;;10447908;28;20056;-34
2023/09/04 12:41:54;;;;;;;3.78;2.35;;;28.50;59.80;;;;;;10445868;28;20049;-32
2023/09/04 12:46:56;;;;;;;5.85;1.70;;;28.50;59.40;;;;;;10437189;28;20526;-33
2023/09/04 12:51:59;;;;;;;3.53;1.90;;;28.30;60.20;;;;;;10436688;28;20123;-36
2023/09/04 12:57:01;;;;;;;2.08;1.60;;;28.90;58.70;;;;;;10461182;28;20088;-39
2023/09/04 13:02:03;;;;;;;2.33;1.90;;;28.90;58.70;;;;;;10447579;28;20065;-43
2023/09/04 13:07:06;;;;;;;3.25;2.80;;;29.40;57.00;;;;;;10434751;28;20053;-36
2023/09/04 13:12:08;;;;;;;3.38;2.55;;;30.00;55.00;;;;;;10448355;28;20148;-36
2023/09/04 13:17:10;;;;;;;2.35;1.73;;;29.70;56.80;;;;;;10428325;28;20521;-32
2023/09/04 13:22:13;;;;;;;4.47;2.90;;;29.50;57.10;;;;;;10443975;28;20068;-32
2023/09/04 13:27:15;;;;;;;1.73;1.35;;;29.30;57.20;;;;;;10436816;28;20212;-34
2023/09/04 13:32:17;;;;;;;4.60;2.83;;;29.60;57.50;;;;;;10438589;28;20114;-40
2023/09/04 13:37:20;;;;;;;1.98;1.42;;;29.80;57.20;;;;;;10435406;28;20049;-32
2023/09/04 13:42:21;;;;;;;5.28;1.73;;;29.50;58.10;;;;;;10438503;28;20057;-36
2023/09/04 13:47:25;;;;;;;4.40;2.38;;;30.10;59.70;;;;;;10435148;28;20144;-34
2023/09/04 13:52:29;;;;;;;2.20;1.55;;;30.50;57.10;;;;;;10437713;28;20071;-33
2023/09/04 13:57:33;;;;;;;1.90;1.70;;;30.50;56.40;;;;;;10428997;28;20143;-32
2023/09/04 14:02:35;;;;;;;2.05;1.85;;;30.30;56.80;;;;;;10427858;28;20510;-38
2023/09/04 14:07:38;;;;;;;4.72;1.63;;;30.60;54.30;;;;;;10437420;28;20541;-37
2023/09/04 14:12:40;;;;;;;1.95;1.80;;;30.30;56.00;;;;;;10432655;28;20478;-33
2023/09/04 14:17:42;;;;;;;2.40;1.42;;;30.30;56.60;;;;;;10446045;28;20111;-35
2023/09/04 14:22:45;;;;;;;2.13;1.83;;;30.60;56.10;;;;;;10430756;28;20499;-37
2023/09/04 14:27:47;;;;;;;2.17;1.40;;;30.80;56.30;;;;;;10422204;28;20085;-34
2023/09/04 14:32:49;;;;;;;3.33;1.95;;;30.40;56.80;;;;;;10435764;28;20046;-30
2023/09/04 14:37:55;;;;;;;2.35;1.58;;;30.40;56.70;;;;;;10444255;28;20140;-34
2023/09/04 14:42:57;;;;;;;2.28;1.67;;;30.50;55.00;;;;;;10429657;28;20048;-31
2023/09/04 14:47:59;;;;;;;3.17;2.15;;;31.10;55.10;;;;;;10428758;28;20128;-32
2023/09/04 14:53:02;;;;;;;1.45;1.30;;;31.00;55.20;;;;;;10423315;28;20072;-37
2023/09/04 14:58:04;;;;;;;2.38;1.83;;;30.60;56.10;;;;;;10434673;28;20073;-34
2023/09/04 15:03:06;;;;;;;6.30;3.10;;;31.00;55.80;;;;;;10439359;28;20041;-33
2023/09/04 15:08:10;;;;;;;5.63;1.90;;;31.30;55.20;;;;;;10431267;28;20044;-36
2023/09/04 15:13:12;;;;;;;1.90;1.58;;;31.40;54.60;;;;;;10427911;28;20045;-38
2023/09/04 15:18:14;;;;;;;1.67;1.08;;;31.00;55.90;;;;;;10432426;28;20038;-32
2023/09/04 15:23:17;;;;;;;1.85;1.20;;;31.00;57.10;;;;;;10431491;28;20072;-33
2023/09/04 15:28:19;;;;;;;2.17;1.70;;;31.10;56.50;;;;;;10439518;28;20087;-33
2023/09/04 15:33:21;;;;;;;2.60;1.77;;;31.00;56.30;;;;;;10442062;28;20052;-31
2023/09/04 15:38:24;;;;;;;2.53;1.85;;;31.10;55.90;;;;;;10434538;28;20053;-29
2023/09/04 15:43:26;;;;;;;1.67;1.38;;;31.20;55.80;;;;;;10429838;28;20509;-36
2023/09/04 15:48:28;;;;;;;4.10;1.88;;;30.90;56.40;;;;;;10429985;28;20064;-36
2023/09/04 15:53:34;;;;;;;3.03;1.60;;;30.80;56.80;;;;;;10425793;28;20494;-33
2023/09/04 15:58:36;;;;;;;1.80;1.52;;;30.90;56.90;;;;;;10426001;28;20045;-38
2023/09/04 16:03:38;;;;;;;2.92;1.60;;;30.70;56.60;;;;;;10434286;28;20073;-36
2023/09/04 16:08:41;;;;;;;1.77;1.50;;;30.80;58.20;;;;;;10422232;28;20049;-32
2023/09/04 16:13:43;;;;;;;3.55;2.15;;;30.60;57.40;;;;;;10439076;28;20083;-39
2023/09/04 16:18:45;;;;;;;1.85;1.70;;;30.50;57.50;;;;;;10438591;28;20139;-40
2023/09/04 16:23:48;;;;;;;4.30;1.48;;;30.40;57.70;;;;;;10440458;28;20054;-35
2023/09/04 16:28:51;;;;;;;1.55;1.40;;;30.60;57.10;;;;;;10436362;28;20128;-36
2023/09/04 16:33:53;;;;;;;1.98;1.55;;;30.50;57.40;;;;;;10441560;28;20049;-38
2023/09/04 16:38:56;;;;;;;1.90;1.63;;;30.90;56.90;;;;;;10467039;28;20059;-36
2023/09/04 16:44:00;;;;;;;2.33;1.55;;;30.90;57.50;;;;;;10437898;28;20466;-34
2023/09/04 16:49:02;;;;;;;2.90;1.65;;;30.70;57.30;;;;;;10437551;28;20053;-40
2023/09/04 16:54:06;;;;;;;3.38;1.67;;;30.60;58.30;;;;;;10433205;28;20041;-40
2023/09/04 16:59:08;;;;;;;2.22;1.95;;;30.90;58.60;;;;;;10444041;28;20041;-35
2023/09/04 17:04:10;;;;;;;3.17;1.98;;;31.00;58.20;;;;;;10429565;28;20049;-35
2023/09/04 17:09:14;;;;;;;1.95;1.60;;;30.70;58.90;;;;;;10436922;28;20049;-32
2023/09/04 17:14:16;;;;;;;1.75;1.45;;;30.80;58.10;;;;;;10437666;28;20052;-34
2023/09/04 17:19:18;;;;;;;3.85;1.70;;;30.70;58.30;;;;;;10440771;28;20051;-33
2023/09/04 17:24:21;;;;;;;2.75;1.83;;;30.90;61.00;;;;;;10424627;28;20057;-37
2023/09/04 17:29:22;;;;;;;2.45;1.75;;;31.00;59.40;;;;;;10421429;28;20137;-34
2023/09/04 17:34:25;;;;;;;2.95;1.88;;;30.90;58.90;;;;;;10437751;28;20048;-33
2023/09/04 17:39:29;;;;;;;2.38;1.63;;;30.80;58.70;;;;;;10433332;28;20041;-33
2023/09/04 17:44:30;;;;;;;3.38;1.42;;;30.60;58.70;;;;;;10432193;28;20055;-36
2023/09/04 17:49:35;;;;;;;1.73;1.40;;;30.50;59.00;;;;;;10439791;28;20041;-34
2023/09/04 17:54:38;;;;;;;1.67;1.20;;;30.40;59.10;;;;;;10438744;28;20045;-33
2023/09/04 17:59:40;;;;;;;2.47;1.63;;;30.50;59.20;;;;;;10435309;28;20527;-30
2023/09/04 18:04:42;;;;;;;2.72;1.50;;;30.40;59.30;;;;;;10438534;28;20045;-33
2023/09/04 18:09:45;;;;;;;2.15;1.27;;;30.30;59.90;;;;;;10436259;28;20442;-36
2023/09/04 18:14:47;;;;;;;1.90;1.50;;;30.30;59.60;;;;;;10434084;28;20096;-27
2023/09/04 18:19:49;;;;;;;1.98;1.40;;;30.20;59.60;;;;;;10426149;28;20140;-32
2023/09/04 18:24:53;;;;;;;1.98;1.45;;;30.10;59.70;;;;;;10427054;28;20087;-35
2023/09/04 18:29:55;;;;;;;2.15;1.48;;;30.10;59.80;;;;;;10435843;28;20754;-36
2023/09/04 18:34:57;;;;;;;2.40;1.70;;;30.00;60.10;;;;;;10442536;28;20079;-32
2023/09/04 18:40:02;;;;;;;3.72;1.60;;;30.00;60.20;;;;;;10439240;28;20493;-39
2023/09/04 18:45:06;;;;;;;2.03;1.30;;;30.10;60.80;;;;;;10430890;28;20057;-38
2023/09/04 18:50:08;;;;;;;3.63;1.55;;;30.00;60.70;;;;;;10418587;28;20448;-40
2023/09/04 18:55:11;;;;;;;1.92;1.45;;;29.90;60.70;;;;;;10426240;28;20052;-39
2023/09/04 19:00:15;;;;;;;2.28;1.50;;;29.90;60.80;;;;;;10430786;28;20057;-32
2023/09/04 19:05:17;;;;;;;2.40;1.77;;;29.80;61.00;;;;;;10431971;28;20041;-31
2023/09/04 19:10:20;;;;;;;1.88;1.40;;;29.70;61.00;;;;;;10411828;28;20063;-37
2023/09/04 19:15:22;;;;;;;2.58;1.55;;;29.70;61.20;;;;;;10424712;28;20534;-34
2023/09/04 19:20:24;;;;;;;1.83;1.60;;;29.60;61.20;;;;;;10426528;28;20115;-32
2023/09/04 19:25:27;;;;;;;3.08;1.88;;;29.60;61.40;;;;;;10423530;28;20067;-31
2023/09/04 19:30:30;;;;;;;5.00;2.20;;;29.50;61.40;;;;;;10432041;28;20041;-36
2023/09/04 19:35:32;;;;;;;3.10;1.80;;;29.50;61.50;;;;;;10440104;28;20135;-37
2023/09/04 19:40:36;;;;;;;2.60;2.13;;;29.40;61.40;;;;;;10436278;28;20148;-37
2023/09/04 19:45:38;;;;;;;3.00;1.85;;;29.40;61.60;;;;;;10447002;28;20059;-31
2023/09/04 19:50:39;;;;;;;3.42;1.95;;;29.30;61.60;;;;;;10432273;28;20053;-38
2023/09/04 19:55:42;;;;;;;3.72;1.95;;;29.30;61.70;;;;;;10421506;28;20482;-39
2023/09/04 20:00:44;;;;;;;3.10;2.03;;;29.20;61.70;;;;;;10421880;28;20076;-36
2023/09/04 20:05:46;;;;;;;3.72;2.35;;;29.20;61.90;;;;;;10428543;28;20045;-35
2023/09/04 20:10:49;;;;;;;3.85;2.50;;;29.10;62.00;;;;;;10434918;28;20132;-33
2023/09/04 20:15:52;;;;;;;5.70;2.63;;;29.10;62.00;;;;;;10428119;28;20088;-31
2023/09/04 20:20:56;;;;;;;4.30;2.72;;;29.10;62.10;;;;;;10433412;28;20133;-36
2023/09/04 20:26:01;;;;;;;3.47;2.08;;;29.00;62.00;;;;;;10430336;28;20117;-37
2023/09/04 20:31:04;;;;;;;3.78;2.15;;;29.00;62.20;;;;;;10439274;28;20080;-33
2023/09/04 20:36:06;;;;;;;7.10;2.50;;;29.00;62.20;;;;;;10444552;28;20060;-31
2023/09/04 20:41:10;;;;;;;7.95;2.50;;;28.90;62.10;;;;;;10436134;28;20055;-32
2023/09/04 20:46:14;;;;;;;5.15;2.42;;;28.90;62.20;;;;;;10441852;28;20513;-31
2023/09/04 20:51:17;;;;;;;3.28;2.15;;;28.90;62.40;;;;;;10438297;28;20045;-35
2023/09/04 20:56:20;;;;;;;4.50;2.15;;;28.80;62.40;;;;;;10426378;28;20053;-31
2023/09/04 21:01:22;;;;;;;6.53;2.40;;;28.80;62.40;;;;;;10432233;28;20041;-31
2023/09/04 21:06:23;;;;;;;5.68;2.42;;;28.80;62.50;;;;;;10437218;28;20129;-38
2023/09/04 23:24:34;;;;;;;2.20;1.70;;;27.90;64.10;;;;;;10435366;28;20049;-33
2023/09/04 23:29:40;;;;;;;3.17;1.80;;;27.80;64.10;;;;;;10449482;28;20485;-33
2023/09/04 23:34:49;;;;;;;2.30;1.75;;;27.80;64.20;;;;;;10454863;28;20048;-31
2023/09/04 23:45:11;;;;;;;2.97;1.58;;;27.70;64.20;;;;;;10452108;28;20045;-31
2023/09/04 23:50:16;;;;;;;2.00;1.80;;;27.70;64.30;;;;;;10447439;28;20076;-39
2023/09/04 23:55:18;;;;;;;3.03;1.58;;;27.60;64.30;;;;;;10446020;28;20481;-33
